createdAt,value
2022-07-29T00:01:02.852Z,56.00
2022-07-29T00:03:29.659Z,56.40
2022-07-29T00:05:56.430Z,56.40
2022-07-29T00:08:23.204Z,57.00
2022-07-29T00:10:51.082Z,56.70
2022-07-29T00:13:17.956Z,56.30
2022-07-29T00:15:58.558Z,56.40
2022-07-29T00:18:31.323Z,56.50
2022-07-29T00:20:58.030Z,56.50
2022-07-29T00:23:24.757Z,56.40
2022-07-29T00:25:51.444Z,56.50
2022-07-29T00:28:18.258Z,56.50
2022-07-29T00:30:44.994Z,56.50
2022-07-29T00:33:11.762Z,56.70
2022-07-29T00:35:44.448Z,56.50
2022-07-29T00:38:12.789Z,56.60
2022-07-29T00:40:39.884Z,57.10
2022-07-29T00:43:12.399Z,57.00
2022-07-29T00:45:39.430Z,56.90
2022-07-29T00:48:07.464Z,57.00
2022-07-29T00:50:34.342Z,57.10
2022-07-29T00:53:02.078Z,57.90
2022-07-29T00:55:29.818Z,57.80
2022-07-29T00:57:57.905Z,57.80
2022-07-29T01:00:27.730Z,58.00
2022-07-29T01:02:54.585Z,58.10
2022-07-29T01:05:23.260Z,58.10
2022-07-29T01:07:53.421Z,58.20
2022-07-29T01:10:21.953Z,58.20
2022-07-29T01:12:51.514Z,58.10
2022-07-29T01:15:18.417Z,58.60
2022-07-29T01:18:03.496Z,58.40
2022-07-29T01:20:57.614Z,58.70
2022-07-29T01:23:30.037Z,58.60
2022-07-29T01:26:32.532Z,58.80
2022-07-29T01:29:23.590Z,59.00
2022-07-29T01:32:27.498Z,59.10
2022-07-29T01:35:19.890Z,58.90
2022-07-29T01:37:56.604Z,59.00
2022-07-29T01:40:43.927Z,59.10
2022-07-29T01:43:13.626Z,59.60
2022-07-29T01:45:44.045Z,63.50
2022-07-29T01:48:20.870Z,61.90
2022-07-29T01:51:08.519Z,61.50
2022-07-29T01:53:52.977Z,60.20
2022-07-29T01:56:22.137Z,60.40
2022-07-29T01:58:50.648Z,61.10
2022-07-29T02:01:18.580Z,60.80
2022-07-29T02:03:47.014Z,59.70
2022-07-29T02:06:18.248Z,60.20
2022-07-29T02:08:47.738Z,60.10
2022-07-29T02:11:14.901Z,60.20
2022-07-29T02:13:43.281Z,59.80
2022-07-29T02:16:11.504Z,60.10
2022-07-29T02:18:40.517Z,59.90
2022-07-29T02:21:14.855Z,60.00
2022-07-29T02:23:45.055Z,59.90
2022-07-29T02:26:20.587Z,59.60
2022-07-29T02:28:49.331Z,59.20
2022-07-29T02:31:19.397Z,59.50
2022-07-29T02:33:48.275Z,59.90
2022-07-29T02:36:17.035Z,60.10
2022-07-29T02:38:52.340Z,60.20
2022-07-29T02:41:24.587Z,59.90
2022-07-29T02:43:59.442Z,59.40
2022-07-29T02:46:37.938Z,59.80
2022-07-29T02:49:20.530Z,59.80
2022-07-29T02:51:53.913Z,59.40
2022-07-29T02:54:39.160Z,59.10
2022-07-29T02:57:15.308Z,59.40
2022-07-29T02:59:44.347Z,60.00
2022-07-29T03:02:12.553Z,60.30
2022-07-29T03:04:42.537Z,59.90
2022-07-29T03:07:10.222Z,59.70
2022-07-29T03:09:37.713Z,59.80
2022-07-29T03:12:05.865Z,59.50
2022-07-29T03:14:33.017Z,60.30
2022-07-29T03:17:00.335Z,61.40
2022-07-29T03:19:27.953Z,62.10
2022-07-29T03:21:57.693Z,61.60
2022-07-29T03:24:33.854Z,61.30
2022-07-29T03:27:00.886Z,61.20
2022-07-29T03:29:33.856Z,61.30
2022-07-29T03:32:08.214Z,61.70
2022-07-29T03:34:36.674Z,61.10
2022-07-29T03:37:03.502Z,61.50
2022-07-29T03:39:34.648Z,61.50
2022-07-29T03:42:02.795Z,61.60
2022-07-29T03:44:30.749Z,63.50
2022-07-29T03:47:00.994Z,64.50
2022-07-29T03:49:28.776Z,64.80
2022-07-29T03:51:56.224Z,64.20
2022-07-29T03:54:23.725Z,64.40
2022-07-29T03:56:53.473Z,64.20
2022-07-29T03:59:22.284Z,63.10
2022-07-29T04:01:49.920Z,62.90
2022-07-29T04:04:17.681Z,62.20
2022-07-29T04:06:46.627Z,62.80
2022-07-29T04:09:15.157Z,62.50
2022-07-29T04:12:03.284Z,63.40
2022-07-29T04:14:29.468Z,63.30
2022-07-29T04:16:56.245Z,62.80
2022-07-29T04:19:23.514Z,62.00
2022-07-29T04:21:50.497Z,62.60
2022-07-29T04:24:17.746Z,62.70
2022-07-29T04:26:46.738Z,63.60
2022-07-29T04:29:15.123Z,63.80
2022-07-29T04:31:42.713Z,63.20
2022-07-29T04:34:09.966Z,63.30
2022-07-29T04:36:36.725Z,63.40
2022-07-29T04:39:03.743Z,63.60
2022-07-29T04:41:33.098Z,62.70
2022-07-29T04:44:02.157Z,62.80
2022-07-29T04:46:29.061Z,62.60
2022-07-29T04:48:56.001Z,62.50
2022-07-29T04:51:22.913Z,62.70
2022-07-29T04:53:49.691Z,62.70
2022-07-29T04:56:16.363Z,62.90
2022-07-29T04:58:43.078Z,62.70
2022-07-29T05:01:09.894Z,62.40
2022-07-29T05:03:36.616Z,62.00
2022-07-29T05:06:03.572Z,61.70
2022-07-29T05:08:30.301Z,61.40
2022-07-29T05:10:57.085Z,61.20
2022-07-29T05:13:23.835Z,60.90
2022-07-29T05:15:50.830Z,61.00
2022-07-29T05:18:17.562Z,61.10
2022-07-29T05:20:45.434Z,61.30
2022-07-29T05:23:13.708Z,61.40
2022-07-29T05:25:43.054Z,61.40
2022-07-29T05:28:12.144Z,61.70
2022-07-29T05:30:38.984Z,61.30
2022-07-29T05:33:05.746Z,61.20
2022-07-29T05:35:32.569Z,61.50
2022-07-29T05:37:59.255Z,61.50
2022-07-29T05:40:25.951Z,61.60
2022-07-29T05:42:52.719Z,61.40
2022-07-29T05:45:19.404Z,62.00
2022-07-29T05:47:46.507Z,62.20
2022-07-29T05:50:13.544Z,62.40
2022-07-29T05:52:40.440Z,62.20
2022-07-29T05:55:07.549Z,62.30
2022-07-29T05:57:34.289Z,61.70
2022-07-29T06:00:01.082Z,61.40
2022-07-29T06:02:28.014Z,61.70
2022-07-29T06:04:54.973Z,61.20
2022-07-29T06:07:21.968Z,60.90
2022-07-29T06:09:48.684Z,60.80
2022-07-29T06:12:15.434Z,60.30
2022-07-29T06:14:42.138Z,60.40
2022-07-29T06:17:08.898Z,60.40
2022-07-29T06:19:37.150Z,59.80
2022-07-29T06:22:04.605Z,60.20
2022-07-29T06:24:31.712Z,59.60
2022-07-29T06:26:58.536Z,59.80
2022-07-29T06:29:25.512Z,59.70
2022-07-29T06:31:52.236Z,59.30
2022-07-29T06:34:20.093Z,58.60
2022-07-29T06:36:47.593Z,58.50
2022-07-29T06:39:15.615Z,58.60
2022-07-29T06:41:42.490Z,58.10
2022-07-29T06:44:09.733Z,57.50
2022-07-29T06:46:37.420Z,57.60
2022-07-29T06:49:04.935Z,57.90
2022-07-29T06:51:31.789Z,57.20
2022-07-29T06:54:02.429Z,57.50
2022-07-29T06:56:42.713Z,56.90
2022-07-29T06:59:10.901Z,55.90
2022-07-29T07:01:38.949Z,55.20
2022-07-29T07:04:06.281Z,54.90
2022-07-29T07:06:33.007Z,55.60
2022-07-29T07:08:59.718Z,55.20
2022-07-29T07:11:26.494Z,55.50
2022-07-29T07:13:54.843Z,54.50
2022-07-29T07:16:23.791Z,54.20
2022-07-29T07:18:50.516Z,54.50
2022-07-29T07:21:19.082Z,54.10
2022-07-29T07:23:46.722Z,54.20
2022-07-29T07:26:13.681Z,54.00
2022-07-29T07:28:40.403Z,53.60
2022-07-29T07:31:07.208Z,53.60
2022-07-29T07:33:33.997Z,53.50
2022-07-29T07:36:00.776Z,54.00
2022-07-29T07:38:27.504Z,54.00
2022-07-29T07:40:54.280Z,53.60
2022-07-29T07:43:21.119Z,54.00
2022-07-29T07:45:47.905Z,54.00
2022-07-29T07:48:14.809Z,53.80
2022-07-29T07:50:41.640Z,53.90
2022-07-29T07:53:08.449Z,53.60
2022-07-29T07:56:07.968Z,53.60
2022-07-29T07:58:26.987Z,53.80
2022-07-29T08:00:53.803Z,53.90
2022-07-29T08:03:20.524Z,54.30
2022-07-29T08:05:48.359Z,54.60
2022-07-29T08:08:15.070Z,54.50
2022-07-29T08:10:53.713Z,54.90
2022-07-29T08:13:22.313Z,54.90
2022-07-29T08:15:58.206Z,55.00
2022-07-29T08:18:25.656Z,54.60
2022-07-29T08:20:52.486Z,54.80
2022-07-29T08:23:20.065Z,54.40
2022-07-29T08:25:46.883Z,54.80
2022-07-29T08:28:17.822Z,54.90
2022-07-29T08:30:44.634Z,54.80
2022-07-29T08:33:11.391Z,54.70
2022-07-29T08:35:40.130Z,54.50
2022-07-29T08:38:07.058Z,54.20
2022-07-29T08:40:33.890Z,54.40
2022-07-29T08:43:06.793Z,53.80
2022-07-29T08:45:47.249Z,54.40
2022-07-29T08:48:21.086Z,54.20
2022-07-29T08:50:50.963Z,53.70
2022-07-29T08:53:18.920Z,53.80
2022-07-29T08:55:50.686Z,53.50
2022-07-29T08:58:22.875Z,53.30
2022-07-29T09:00:55.252Z,53.10
2022-07-29T09:03:25.109Z,52.70
2022-07-29T09:05:52.645Z,52.80
2022-07-29T09:08:21.034Z,53.40
2022-07-29T09:10:47.822Z,53.50
2022-07-29T09:13:14.535Z,53.50
2022-07-29T09:15:41.249Z,53.80
2022-07-29T09:18:07.939Z,53.70
2022-07-29T09:21:12.163Z,53.90
2022-07-29T09:23:40.608Z,54.60
2022-07-29T09:26:07.376Z,53.90
2022-07-29T09:28:34.064Z,53.60
2022-07-29T09:31:00.810Z,53.50
2022-07-29T09:33:36.568Z,52.70
2022-07-29T09:36:07.582Z,53.10
2022-07-29T09:38:36.172Z,52.70
2022-07-29T09:41:06.560Z,51.90
2022-07-29T09:43:34.209Z,51.40
2022-07-29T09:46:14.375Z,51.80
2022-07-29T09:48:41.180Z,51.80
2022-07-29T09:51:27.019Z,52.40
2022-07-29T09:53:56.785Z,53.50
2022-07-29T09:56:42.318Z,53.30
2022-07-29T09:59:12.002Z,53.30
2022-07-29T10:01:38.720Z,53.00
2022-07-29T10:04:05.668Z,53.00
2022-07-29T10:06:32.418Z,53.00
2022-07-29T10:09:12.231Z,53.30
2022-07-29T10:11:49.077Z,53.60
2022-07-29T10:14:17.113Z,52.90
2022-07-29T10:16:44.367Z,53.00
2022-07-29T10:19:11.309Z,53.70
2022-07-29T10:21:40.715Z,53.60
2022-07-29T10:24:14.951Z,52.80
2022-07-29T10:26:42.837Z,52.40
2022-07-29T10:29:09.583Z,52.70
2022-07-29T10:31:52.065Z,52.90
2022-07-29T10:34:37.319Z,53.10
2022-07-29T10:37:19.460Z,52.90
2022-07-29T10:40:41.306Z,53.00
2022-07-29T10:43:24.840Z,53.10
2022-07-29T10:45:57.991Z,53.30
2022-07-29T10:48:25.766Z,53.50
2022-07-29T10:51:07.122Z,53.70
2022-07-29T10:53:51.729Z,53.90
2022-07-29T10:56:29.593Z,54.20
2022-07-29T10:59:21.383Z,55.60
2022-07-29T11:01:53.374Z,55.80
2022-07-29T11:04:48.572Z,56.00
2022-07-29T11:07:17.420Z,56.10
2022-07-29T11:09:46.405Z,56.40
2022-07-29T11:12:39.265Z,56.00
2022-07-29T11:15:09.077Z,55.90
2022-07-29T11:18:01.242Z,56.60
2022-07-29T11:20:45.844Z,57.60
2022-07-29T11:23:28.072Z,58.30
2022-07-29T11:26:13.116Z,57.10
2022-07-29T11:29:18.824Z,56.50
2022-07-29T11:31:49.498Z,57.20
2022-07-29T11:34:23.526Z,57.60
2022-07-29T11:37:13.681Z,57.70
2022-07-29T11:40:01.791Z,57.60
2022-07-29T11:42:34.316Z,58.20
2022-07-29T11:48:27.644Z,58.60
2022-07-29T11:50:48.493Z,58.40
2022-07-29T11:53:16.148Z,58.10
2022-07-29T11:55:51.647Z,58.00
2022-07-29T11:58:26.076Z,58.10
2022-07-29T12:01:15.150Z,58.00
2022-07-29T12:03:43.737Z,57.70
2022-07-29T12:06:15.585Z,56.90
2022-07-29T12:08:45.525Z,57.30
2022-07-29T12:11:22.611Z,56.80
2022-07-29T12:13:51.367Z,56.50
2022-07-29T12:16:25.945Z,56.30
2022-07-29T12:19:02.321Z,55.50
2022-07-29T12:21:30.214Z,55.50
2022-07-29T12:24:03.453Z,55.90
2022-07-29T12:26:36.222Z,55.60
2022-07-29T12:29:04.391Z,55.90
2022-07-29T12:31:43.791Z,55.70
2022-07-29T12:34:16.832Z,55.50
2022-07-29T12:36:44.066Z,55.20
2022-07-29T12:39:12.497Z,55.60
2022-07-29T12:41:40.009Z,55.80
2022-07-29T12:44:06.774Z,55.70
2022-07-29T12:46:33.700Z,55.70
2022-07-29T12:49:00.894Z,55.20
2022-07-29T12:51:31.990Z,55.00
2022-07-29T12:54:07.943Z,54.70
2022-07-29T12:56:44.127Z,54.70
2022-07-29T12:59:17.378Z,54.20
2022-07-29T13:01:45.173Z,54.40
2022-07-29T13:04:12.081Z,54.70
2022-07-29T13:06:39.311Z,54.80
2022-07-29T13:09:14.535Z,54.40
2022-07-29T13:11:47.943Z,54.90
2022-07-29T13:14:36.664Z,54.90
2022-07-29T13:17:21.665Z,54.80
2022-07-29T13:19:53.758Z,54.70
2022-07-29T13:22:26.034Z,54.90
2022-07-29T13:25:02.886Z,55.40
2022-07-29T13:27:33.053Z,55.10
2022-07-29T13:30:01.664Z,55.40
2022-07-29T13:32:30.192Z,55.10
2022-07-29T13:35:05.719Z,55.50
2022-07-29T13:37:35.001Z,55.30
2022-07-29T13:40:04.070Z,56.20
2022-07-29T13:42:31.284Z,55.90
2022-07-29T13:44:58.646Z,55.80
2022-07-29T13:47:32.089Z,56.50
2022-07-29T13:50:01.182Z,56.90
2022-07-29T13:52:29.428Z,56.90
2022-07-29T13:54:56.288Z,56.70
2022-07-29T13:57:23.029Z,56.90
2022-07-29T13:59:53.893Z,57.60
2022-07-29T14:02:21.284Z,57.40
2022-07-29T14:04:52.454Z,57.30
2022-07-29T14:07:19.273Z,57.30
2022-07-29T14:09:46.060Z,58.30
2022-07-29T14:12:13.123Z,58.10
2022-07-29T14:14:39.961Z,58.10
2022-07-29T14:17:09.434Z,57.50
2022-07-29T14:19:36.758Z,56.70
2022-07-29T14:22:05.223Z,56.30
2022-07-29T14:24:32.161Z,56.00
2022-07-29T14:26:59.278Z,55.80
2022-07-29T14:29:37.260Z,56.20
2022-07-29T14:32:09.221Z,56.50
2022-07-29T14:34:37.715Z,56.50
2022-07-29T14:37:09.366Z,56.80
2022-07-29T14:39:42.883Z,57.20
2022-07-29T14:42:11.456Z,57.80
2022-07-29T14:44:39.730Z,57.80
2022-07-29T14:47:07.822Z,58.50
2022-07-29T14:49:35.304Z,58.40
2022-07-29T14:52:02.001Z,58.70
2022-07-29T14:54:28.759Z,58.10
2022-07-29T14:56:58.071Z,58.10
2022-07-29T14:59:25.444Z,58.50
2022-07-29T15:01:52.176Z,59.50
2022-07-29T15:04:18.976Z,60.30
2022-07-29T15:06:45.779Z,61.80
2022-07-29T15:09:12.843Z,61.30
2022-07-29T15:11:39.646Z,62.00
2022-07-29T15:14:06.952Z,62.40
2022-07-29T15:16:36.516Z,64.70
2022-07-29T15:19:03.776Z,66.60
2022-07-29T15:21:30.603Z,68.80
2022-07-29T15:23:57.373Z,71.00
2022-07-29T15:26:24.328Z,73.00
2022-07-29T15:28:51.021Z,74.30
2022-07-29T15:31:19.607Z,74.00
2022-07-29T15:33:46.329Z,75.20
2022-07-29T15:36:25.437Z,77.00
2022-07-29T15:39:00.166Z,78.40
2022-07-29T15:41:26.986Z,80.30
2022-07-29T15:43:53.693Z,83.10
2022-07-29T15:46:39.789Z,87.30
2022-07-29T15:49:07.527Z,89.60
2022-07-29T15:51:34.446Z,94.00
2022-07-29T15:54:05.351Z,99.90
2022-07-29T15:56:32.135Z,99.90
2022-07-29T15:58:59.248Z,99.90
2022-07-29T16:01:28.145Z,99.90
2022-07-29T16:03:54.997Z,99.90
2022-07-29T16:06:21.852Z,99.90
2022-07-29T16:08:48.633Z,99.90
2022-07-29T16:11:15.399Z,99.90
2022-07-29T16:13:42.135Z,99.90
2022-07-29T16:16:08.958Z,99.90
2022-07-29T16:18:35.847Z,99.90
2022-07-29T16:21:02.618Z,99.90
2022-07-29T16:23:29.504Z,99.90
2022-07-29T16:26:00.845Z,99.90
2022-07-29T16:28:31.111Z,99.90
2022-07-29T16:30:58.478Z,99.90
2022-07-29T16:33:25.629Z,99.90
2022-07-29T16:35:52.812Z,99.90
2022-07-29T16:38:19.474Z,99.90
2022-07-29T16:40:46.359Z,99.90
2022-07-29T16:43:13.300Z,99.90
2022-07-29T16:45:45.652Z,99.90
2022-07-29T16:48:14.949Z,99.90
2022-07-29T16:50:43.280Z,99.90
2022-07-29T16:53:10.910Z,99.90
2022-07-29T16:55:37.895Z,99.90
2022-07-29T16:58:05.269Z,99.90
2022-07-29T17:00:32.062Z,99.90
2022-07-29T17:02:59.967Z,99.90
2022-07-29T17:05:27.662Z,99.90
2022-07-29T17:07:54.859Z,99.90
2022-07-29T17:10:22.253Z,99.90
2022-07-29T17:12:49.047Z,99.90
2022-07-29T17:15:18.453Z,99.90
2022-07-29T17:17:56.431Z,99.90
2022-07-29T17:20:24.015Z,99.90
2022-07-29T17:22:50.753Z,99.90
2022-07-29T17:25:20.632Z,99.90
2022-07-29T17:27:49.424Z,99.90
2022-07-29T17:30:16.333Z,99.90
2022-07-29T17:32:43.052Z,99.90
2022-07-29T17:35:28.774Z,99.90
2022-07-29T17:37:55.606Z,99.90
2022-07-29T17:40:22.564Z,99.90
2022-07-29T17:42:49.334Z,99.90
2022-07-29T17:45:16.243Z,99.90
2022-07-29T17:47:44.461Z,99.90
2022-07-29T17:50:11.467Z,99.90
2022-07-29T17:52:39.040Z,99.90
2022-07-29T17:55:07.012Z,99.90
2022-07-29T17:57:34.175Z,99.90
2022-07-29T18:00:01.013Z,99.90
2022-07-29T18:02:28.366Z,99.90
2022-07-29T18:04:55.369Z,99.90
2022-07-29T18:07:22.093Z,99.90
2022-07-29T18:09:48.783Z,99.90
2022-07-29T18:12:15.586Z,99.90
2022-07-29T18:14:42.309Z,99.90
2022-07-29T18:17:08.991Z,99.90
2022-07-29T18:19:35.740Z,99.90
2022-07-29T18:22:05.154Z,99.90
2022-07-29T18:24:32.398Z,99.90
2022-07-29T18:26:59.388Z,99.90
2022-07-29T18:29:28.904Z,99.90
2022-07-29T18:31:55.886Z,99.90
2022-07-29T18:34:22.613Z,99.90
2022-07-29T18:36:49.285Z,99.90
2022-07-29T18:39:21.200Z,99.90
2022-07-29T18:41:49.776Z,99.90
2022-07-29T18:44:18.813Z,99.90
2022-07-29T18:46:55.476Z,99.90
2022-07-29T18:49:23.192Z,99.90
2022-07-29T18:51:50.810Z,99.90
2022-07-29T18:54:17.949Z,99.90
2022-07-29T18:56:45.931Z,99.90
2022-07-29T18:59:16.720Z,99.90
2022-07-29T19:01:43.979Z,99.90
2022-07-29T19:04:11.060Z,99.90
2022-07-29T19:06:37.837Z,99.90
2022-07-29T19:09:04.648Z,99.90
2022-07-29T19:11:31.594Z,99.90
2022-07-29T19:13:58.312Z,99.90
2022-07-29T19:16:25.071Z,99.90
2022-07-29T19:18:51.845Z,99.90
2022-07-29T19:21:19.191Z,99.90
2022-07-29T19:24:01.861Z,99.90
2022-07-29T19:26:33.486Z,99.90
2022-07-29T19:29:00.193Z,99.90
2022-07-29T19:31:26.923Z,99.90
2022-07-29T19:33:53.778Z,99.90
2022-07-29T19:36:20.598Z,99.90
2022-07-29T19:38:47.312Z,99.90
2022-07-29T19:41:14.145Z,99.90
2022-07-29T19:43:51.059Z,99.90
2022-07-29T19:46:20.664Z,99.90
2022-07-29T19:48:47.478Z,99.90
2022-07-29T19:51:14.385Z,99.90
2022-07-29T19:53:41.174Z,99.90
2022-07-29T19:56:08.954Z,99.90
2022-07-29T19:58:36.175Z,99.90
2022-07-29T20:01:03.113Z,99.90
2022-07-29T20:03:40.482Z,99.90
2022-07-29T20:06:07.751Z,99.90
2022-07-29T20:08:34.781Z,99.90
2022-07-29T20:11:01.965Z,99.90
2022-07-29T20:13:31.193Z,99.90
2022-07-29T20:15:58.192Z,99.90
2022-07-29T20:18:25.236Z,99.90
2022-07-29T20:20:52.008Z,99.90
2022-07-29T20:23:19.337Z,99.90
2022-07-29T20:25:46.131Z,99.90
2022-07-29T20:28:12.908Z,99.90
2022-07-29T20:30:39.805Z,99.90
2022-07-29T20:33:06.890Z,99.90
2022-07-29T20:35:34.081Z,99.90
2022-07-29T20:38:01.083Z,99.90
2022-07-29T20:40:29.103Z,99.90
2022-07-29T20:42:56.313Z,99.90
2022-07-29T20:45:24.296Z,99.90
2022-07-29T20:47:52.149Z,99.90
2022-07-29T20:50:21.262Z,99.90
2022-07-29T20:52:51.005Z,99.90
2022-07-29T20:55:17.716Z,99.90
2022-07-29T20:57:44.528Z,99.90
2022-07-29T21:00:11.880Z,99.90
2022-07-29T21:02:38.912Z,99.90
2022-07-29T21:05:06.286Z,99.90
2022-07-29T21:07:33.054Z,99.90
2022-07-29T21:09:59.891Z,99.90
2022-07-29T21:12:26.758Z,99.90
2022-07-29T21:14:53.497Z,99.90
2022-07-29T21:17:22.466Z,99.90
2022-07-29T21:19:52.670Z,99.90
2022-07-29T21:22:22.084Z,99.90
2022-07-29T21:24:49.325Z,99.90
2022-07-29T21:27:35.079Z,99.90
2022-07-29T21:30:06.743Z,99.90
2022-07-29T21:32:33.755Z,99.90
2022-07-29T21:35:00.781Z,99.90
2022-07-29T21:37:28.016Z,99.90
2022-07-29T21:39:54.900Z,99.90
2022-07-29T21:42:21.881Z,99.90
2022-07-29T21:44:48.704Z,99.90
2022-07-29T21:47:15.527Z,99.90
2022-07-29T21:49:42.488Z,99.90
2022-07-29T21:52:09.210Z,99.90
2022-07-29T21:54:35.954Z,99.90
2022-07-29T21:57:03.541Z,99.90
2022-07-29T21:59:30.727Z,99.90
2022-07-29T22:02:00.784Z,99.90
2022-07-29T22:04:29.169Z,99.90
2022-07-29T22:06:56.534Z,99.90
2022-07-29T22:09:23.686Z,99.90
2022-07-29T22:11:51.082Z,99.90
2022-07-29T22:14:18.503Z,99.90
2022-07-29T22:16:46.082Z,99.90
2022-07-29T22:19:14.074Z,99.90
2022-07-29T22:21:41.449Z,99.90
2022-07-29T22:24:09.807Z,99.90
2022-07-29T22:26:36.840Z,99.90
2022-07-29T22:29:03.655Z,99.90
2022-07-29T22:31:30.400Z,99.90
2022-07-29T22:33:57.177Z,99.90
2022-07-29T22:36:23.870Z,99.90
2022-07-29T22:38:52.110Z,99.90
2022-07-29T22:41:19.022Z,99.90
2022-07-29T22:43:45.796Z,99.90
2022-07-29T22:46:12.557Z,99.90
2022-07-29T22:48:39.462Z,99.90
2022-07-29T22:51:06.956Z,99.90
2022-07-29T22:53:33.656Z,99.90
2022-07-29T22:56:00.379Z,99.90
2022-07-29T22:58:27.525Z,99.90
2022-07-29T23:00:54.384Z,99.90
2022-07-29T23:03:22.471Z,99.90
2022-07-29T23:05:51.493Z,99.90
2022-07-29T23:08:18.964Z,99.90
2022-07-29T23:10:46.120Z,99.90
2022-07-29T23:13:13.206Z,99.90
2022-07-29T23:15:39.957Z,99.90
2022-07-29T23:18:06.770Z,99.90
2022-07-29T23:20:33.569Z,99.90
2022-07-29T23:23:00.355Z,99.90
2022-07-29T23:25:27.090Z,99.90
2022-07-29T23:27:53.781Z,99.90
2022-07-29T23:30:20.543Z,99.90
2022-07-29T23:32:47.285Z,99.90
2022-07-29T23:35:14.040Z,99.90
2022-07-29T23:37:40.849Z,99.90
2022-07-29T23:40:12.291Z,99.90
2022-07-29T23:42:42.217Z,99.90
2022-07-29T23:45:10.187Z,99.90
2022-07-29T23:47:37.013Z,99.90
2022-07-29T23:50:05.379Z,99.90
2022-07-29T23:52:32.163Z,99.90
2022-07-29T23:55:37.733Z,99.90
2022-07-29T23:57:45.943Z,99.90
